sensor_id;sensor_type;location;lat;lon;timestamp;P1;durP1;ratioP1;P2;durP2;ratioP2
76733;SDS011;65660;53.288;14.666;2023-02-28T00:01:29;9.93;;;5.50;;
76733;SDS011;65660;53.288;14.666;2023-02-28T00:06:29;9.73;;;5.53;;
76733;SDS011;65660;53.288;14.666;2023-02-28T00:11:30;10.47;;;5.13;;
76733;SDS011;65660;53.288;14.666;2023-02-28T00:16:30;10.27;;;5.50;;
76733;SDS011;65660;53.288;14.666;2023-02-28T00:21:31;11.70;;;5.40;;
76733;SDS011;65660;53.288;14.666;2023-02-28T00:26:31;13.70;;;5.60;;
76733;SDS011;65660;53.288;14.666;2023-02-28T00:31:32;11.13;;;5.40;;
76733;SDS011;65660;53.288;14.666;2023-02-28T00:36:32;10.87;;;5.67;;
76733;SDS011;65660;53.288;14.666;2023-02-28T00:41:33;10.00;;;5.40;;
76733;SDS011;65660;53.288;14.666;2023-02-28T00:46:33;8.60;;;6.80;;
76733;SDS011;65660;53.288;14.666;2023-02-28T00:51:34;9.27;;;6.50;;
76733;SDS011;65660;53.288;14.666;2023-02-28T00:56:34;9.83;;;5.07;;
76733;SDS011;65660;53.288;14.666;2023-02-28T01:01:34;9.80;;;5.37;;
76733;SDS011;65660;53.288;14.666;2023-02-28T01:06:35;9.33;;;5.47;;
76733;SDS011;65660;53.288;14.666;2023-02-28T01:11:36;8.87;;;4.77;;
76733;SDS011;65660;53.288;14.666;2023-02-28T01:16:36;11.90;;;5.73;;
76733;SDS011;65660;53.288;14.666;2023-02-28T01:21:37;10.07;;;4.93;;
76733;SDS011;65660;53.288;14.666;2023-02-28T01:26:38;8.70;;;4.60;;
76733;SDS011;65660;53.288;14.666;2023-02-28T01:31:38;9.53;;;4.60;;
76733;SDS011;65660;53.288;14.666;2023-02-28T01:36:39;11.00;;;5.20;;
76733;SDS011;65660;53.288;14.666;2023-02-28T01:41:39;9.77;;;4.80;;
76733;SDS011;65660;53.288;14.666;2023-02-28T01:46:39;7.43;;;4.40;;
76733;SDS011;65660;53.288;14.666;2023-02-28T01:51:47;8.23;;;5.27;;
76733;SDS011;65660;53.288;14.666;2023-02-28T01:56:51;8.40;;;4.80;;
76733;SDS011;65660;53.288;14.666;2023-02-28T02:01:57;10.90;;;5.10;;
76733;SDS011;65660;53.288;14.666;2023-02-28T02:06:58;10.97;;;5.17;;
76733;SDS011;65660;53.288;14.666;2023-02-28T02:11:59;8.80;;;5.40;;
76733;SDS011;65660;53.288;14.666;2023-02-28T02:17:16;8.07;;;4.57;;
76733;SDS011;65660;53.288;14.666;2023-02-28T02:27:26;9.47;;;4.90;;
76733;SDS011;65660;53.288;14.666;2023-02-28T02:38:08;9.83;;;4.60;;
76733;SDS011;65660;53.288;14.666;2023-02-28T02:43:22;9.67;;;4.97;;
76733;SDS011;65660;53.288;14.666;2023-02-28T02:48:30;8.43;;;5.20;;
76733;SDS011;65660;53.288;14.666;2023-02-28T02:53:36;9.47;;;7.30;;
76733;SDS011;65660;53.288;14.666;2023-02-28T02:58:41;7.77;;;4.67;;
76733;SDS011;65660;53.288;14.666;2023-02-28T03:03:42;9.50;;;5.73;;
76733;SDS011;65660;53.288;14.666;2023-02-28T03:08:43;8.93;;;5.80;;
76733;SDS011;65660;53.288;14.666;2023-02-28T03:24:28;11.03;;;6.23;;
76733;SDS011;65660;53.288;14.666;2023-02-28T03:29:35;12.23;;;6.73;;
76733;SDS011;65660;53.288;14.666;2023-02-28T03:34:38;12.33;;;6.67;;
76733;SDS011;65660;53.288;14.666;2023-02-28T03:45:16;10.57;;;6.50;;
76733;SDS011;65660;53.288;14.666;2023-02-28T03:50:22;10.87;;;6.47;;
76733;SDS011;65660;53.288;14.666;2023-02-28T03:55:26;10.87;;;6.37;;
76733;SDS011;65660;53.288;14.666;2023-02-28T04:00:33;11.40;;;6.63;;
76733;SDS011;65660;53.288;14.666;2023-02-28T04:05:44;12.00;;;6.27;;
76733;SDS011;65660;53.288;14.666;2023-02-28T04:10:51;10.13;;;6.30;;
76733;SDS011;65660;53.288;14.666;2023-02-28T04:15:56;10.23;;;5.97;;
76733;SDS011;65660;53.288;14.666;2023-02-28T04:20:59;10.13;;;6.00;;
76733;SDS011;65660;53.288;14.666;2023-02-28T04:26:00;13.10;;;6.00;;
76733;SDS011;65660;53.288;14.666;2023-02-28T04:31:02;11.63;;;6.60;;
76733;SDS011;65660;53.288;14.666;2023-02-28T04:36:05;10.23;;;7.20;;
76733;SDS011;65660;53.288;14.666;2023-02-28T04:41:07;10.73;;;5.90;;
76733;SDS011;65660;53.288;14.666;2023-02-28T04:46:07;12.37;;;6.10;;
76733;SDS011;65660;53.288;14.666;2023-02-28T04:51:09;10.20;;;5.87;;
76733;SDS011;65660;53.288;14.666;2023-02-28T04:56:12;8.73;;;6.10;;
76733;SDS011;65660;53.288;14.666;2023-02-28T05:01:24;11.17;;;6.53;;
76733;SDS011;65660;53.288;14.666;2023-02-28T05:06:27;11.53;;;6.77;;
76733;SDS011;65660;53.288;14.666;2023-02-28T05:11:31;10.03;;;6.47;;
76733;SDS011;65660;53.288;14.666;2023-02-28T05:16:32;12.67;;;7.40;;
76733;SDS011;65660;53.288;14.666;2023-02-28T05:21:34;11.77;;;7.10;;
76733;SDS011;65660;53.288;14.666;2023-02-28T05:26:36;13.23;;;6.93;;
76733;SDS011;65660;53.288;14.666;2023-02-28T05:31:38;11.67;;;7.27;;
76733;SDS011;65660;53.288;14.666;2023-02-28T05:36:39;12.00;;;7.43;;
76733;SDS011;65660;53.288;14.666;2023-02-28T05:41:43;10.50;;;6.90;;
76733;SDS011;65660;53.288;14.666;2023-02-28T05:46:43;11.70;;;7.97;;
76733;SDS011;65660;53.288;14.666;2023-02-28T05:51:44;12.83;;;7.07;;
76733;SDS011;65660;53.288;14.666;2023-02-28T05:56:44;11.97;;;8.63;;
76733;SDS011;65660;53.288;14.666;2023-02-28T06:01:45;12.07;;;8.37;;
76733;SDS011;65660;53.288;14.666;2023-02-28T06:06:46;11.67;;;7.30;;
76733;SDS011;65660;53.288;14.666;2023-02-28T06:11:48;11.87;;;7.03;;
76733;SDS011;65660;53.288;14.666;2023-02-28T06:16:48;11.27;;;6.10;;
76733;SDS011;65660;53.288;14.666;2023-02-28T06:21:49;12.37;;;6.67;;
76733;SDS011;65660;53.288;14.666;2023-02-28T06:26:50;10.17;;;6.13;;
76733;SDS011;65660;53.288;14.666;2023-02-28T06:31:51;10.63;;;6.60;;
76733;SDS011;65660;53.288;14.666;2023-02-28T06:36:51;11.80;;;6.00;;
76733;SDS011;65660;53.288;14.666;2023-02-28T06:41:52;9.27;;;5.93;;
76733;SDS011;65660;53.288;14.666;2023-02-28T06:46:53;8.97;;;5.80;;
76733;SDS011;65660;53.288;14.666;2023-02-28T06:51:53;10.70;;;6.03;;
76733;SDS011;65660;53.288;14.666;2023-02-28T06:56:54;10.13;;;6.07;;
76733;SDS011;65660;53.288;14.666;2023-02-28T07:01:54;8.37;;;5.90;;
76733;SDS011;65660;53.288;14.666;2023-02-28T07:06:55;11.53;;;6.47;;
76733;SDS011;65660;53.288;14.666;2023-02-28T07:11:55;10.87;;;5.90;;
76733;SDS011;65660;53.288;14.666;2023-02-28T07:16:56;10.00;;;6.17;;
76733;SDS011;65660;53.288;14.666;2023-02-28T07:21:56;10.47;;;6.73;;
76733;SDS011;65660;53.288;14.666;2023-02-28T07:26:57;12.40;;;6.90;;
76733;SDS011;65660;53.288;14.666;2023-02-28T07:31:58;11.90;;;6.80;;
76733;SDS011;65660;53.288;14.666;2023-02-28T07:36:58;10.33;;;6.40;;
76733;SDS011;65660;53.288;14.666;2023-02-28T07:41:59;11.47;;;6.53;;
76733;SDS011;65660;53.288;14.666;2023-02-28T07:46:59;11.53;;;7.07;;
76733;SDS011;65660;53.288;14.666;2023-02-28T07:52:00;15.43;;;7.83;;
76733;SDS011;65660;53.288;14.666;2023-02-28T07:57:00;14.50;;;7.97;;
76733;SDS011;65660;53.288;14.666;2023-02-28T08:02:01;14.40;;;7.90;;
76733;SDS011;65660;53.288;14.666;2023-02-28T08:07:01;15.97;;;7.93;;
76733;SDS011;65660;53.288;14.666;2023-02-28T08:12:02;13.37;;;7.77;;
76733;SDS011;65660;53.288;14.666;2023-02-28T08:17:03;12.80;;;7.70;;
76733;SDS011;65660;53.288;14.666;2023-02-28T08:22:04;15.60;;;8.50;;
76733;SDS011;65660;53.288;14.666;2023-02-28T08:27:05;15.33;;;7.53;;
76733;SDS011;65660;53.288;14.666;2023-02-28T08:32:06;12.17;;;7.17;;
76733;SDS011;65660;53.288;14.666;2023-02-28T08:37:07;11.97;;;7.50;;
76733;SDS011;65660;53.288;14.666;2023-02-28T08:42:07;18.43;;;10.47;;
76733;SDS011;65660;53.288;14.666;2023-02-28T08:47:08;18.30;;;10.67;;
76733;SDS011;65660;53.288;14.666;2023-02-28T08:52:08;21.13;;;11.80;;
76733;SDS011;65660;53.288;14.666;2023-02-28T08:57:09;20.27;;;11.30;;
76733;SDS011;65660;53.288;14.666;2023-02-28T09:02:12;22.93;;;13.20;;
76733;SDS011;65660;53.288;14.666;2023-02-28T09:07:13;27.07;;;13.20;;
76733;SDS011;65660;53.288;14.666;2023-02-28T09:12:14;25.93;;;13.40;;
76733;SDS011;65660;53.288;14.666;2023-02-28T09:17:14;24.23;;;13.00;;
76733;SDS011;65660;53.288;14.666;2023-02-28T09:22:14;14.97;;;8.77;;
76733;SDS011;65660;53.288;14.666;2023-02-28T09:27:15;13.17;;;7.47;;
76733;SDS011;65660;53.288;14.666;2023-02-28T09:32:16;8.40;;;4.90;;
76733;SDS011;65660;53.288;14.666;2023-02-28T09:37:16;11.70;;;6.23;;
76733;SDS011;65660;53.288;14.666;2023-02-28T09:42:18;12.63;;;7.37;;
76733;SDS011;65660;53.288;14.666;2023-02-28T09:52:28;10.90;;;6.57;;
76733;SDS011;65660;53.288;14.666;2023-02-28T09:57:37;9.30;;;5.77;;
76733;SDS011;65660;53.288;14.666;2023-02-28T10:13:22;6.40;;;5.27;;
76733;SDS011;65660;53.288;14.666;2023-02-28T10:18:28;7.83;;;4.50;;
76733;SDS011;65660;53.288;14.666;2023-02-28T10:23:32;9.87;;;5.83;;
76733;SDS011;65660;53.288;14.666;2023-02-28T10:28:35;7.73;;;4.93;;
76733;SDS011;65660;53.288;14.666;2023-02-28T10:33:35;8.47;;;5.87;;
76733;SDS011;65660;53.288;14.666;2023-02-28T10:38:37;7.00;;;5.30;;
76733;SDS011;65660;53.288;14.666;2023-02-28T10:43:39;5.97;;;4.10;;
76733;SDS011;65660;53.288;14.666;2023-02-28T10:59:00;5.50;;;3.83;;
76733;SDS011;65660;53.288;14.666;2023-02-28T11:04:02;5.17;;;3.90;;
76733;SDS011;65660;53.288;14.666;2023-02-28T11:09:15;4.00;;;3.37;;
76733;SDS011;65660;53.288;14.666;2023-02-28T11:14:21;5.60;;;3.83;;
76733;SDS011;65660;53.288;14.666;2023-02-28T11:19:34;4.67;;;3.80;;
76733;SDS011;65660;53.288;14.666;2023-02-28T11:24:42;4.23;;;3.63;;
76733;SDS011;65660;53.288;14.666;2023-02-28T11:29:46;5.70;;;4.10;;
76733;SDS011;65660;53.288;14.666;2023-02-28T11:34:59;6.13;;;4.50;;
76733;SDS011;65660;53.288;14.666;2023-02-28T11:40:00;5.17;;;4.43;;
76733;SDS011;65660;53.288;14.666;2023-02-28T11:55:36;4.60;;;4.10;;
76733;SDS011;65660;53.288;14.666;2023-02-28T12:05:49;6.10;;;4.33;;
76733;SDS011;65660;53.288;14.666;2023-02-28T12:11:55;6.80;;;4.43;;
76733;SDS011;65660;53.288;14.666;2023-02-28T12:27:39;7.40;;;4.07;;
76733;SDS011;65660;53.288;14.666;2023-02-28T12:32:41;5.17;;;4.10;;
76733;SDS011;65660;53.288;14.666;2023-02-28T12:37:57;6.60;;;3.67;;
76733;SDS011;65660;53.288;14.666;2023-02-28T12:43:10;6.57;;;4.37;;
76733;SDS011;65660;53.288;14.666;2023-02-28T12:48:15;4.67;;;3.40;;
76733;SDS011;65660;53.288;14.666;2023-02-28T13:08:59;4.17;;;3.70;;
76733;SDS011;65660;53.288;14.666;2023-02-28T13:14:03;4.57;;;4.03;;
76733;SDS011;65660;53.288;14.666;2023-02-28T13:19:08;4.97;;;4.20;;
76733;SDS011;65660;53.288;14.666;2023-02-28T13:24:10;4.73;;;3.90;;
76733;SDS011;65660;53.288;14.666;2023-02-28T13:34:15;5.67;;;5.10;;
76733;SDS011;65660;53.288;14.666;2023-02-28T13:39:51;6.17;;;4.47;;
76733;SDS011;65660;53.288;14.666;2023-02-28T13:45:20;5.00;;;4.33;;
76733;SDS011;65660;53.288;14.666;2023-02-28T13:55:31;5.80;;;4.77;;
76733;SDS011;65660;53.288;14.666;2023-02-28T14:05:46;6.97;;;4.33;;
76733;SDS011;65660;53.288;14.666;2023-02-28T14:10:47;7.43;;;6.67;;
76733;SDS011;65660;53.288;14.666;2023-02-28T14:15:55;7.93;;;4.67;;
76733;SDS011;65660;53.288;14.666;2023-02-28T14:31:35;5.63;;;4.70;;
76733;SDS011;65660;53.288;14.666;2023-02-28T14:36:39;7.67;;;4.93;;
76733;SDS011;65660;53.288;14.666;2023-02-28T14:41:41;8.07;;;6.60;;
76733;SDS011;65660;53.288;14.666;2023-02-28T14:46:43;6.47;;;5.60;;
76733;SDS011;65660;53.288;14.666;2023-02-28T14:51:45;7.23;;;5.23;;
76733;SDS011;65660;53.288;14.666;2023-02-28T14:56:48;6.60;;;4.93;;
76733;SDS011;65660;53.288;14.666;2023-02-28T15:01:49;6.53;;;4.90;;
76733;SDS011;65660;53.288;14.666;2023-02-28T15:07:13;5.83;;;4.77;;
76733;SDS011;65660;53.288;14.666;2023-02-28T15:12:14;6.77;;;5.57;;
76733;SDS011;65660;53.288;14.666;2023-02-28T15:17:18;8.47;;;6.20;;
76733;SDS011;65660;53.288;14.666;2023-02-28T15:22:31;6.30;;;5.10;;
76733;SDS011;65660;53.288;14.666;2023-02-28T15:27:37;6.20;;;5.10;;
76733;SDS011;65660;53.288;14.666;2023-02-28T15:32:44;7.73;;;4.93;;
76733;SDS011;65660;53.288;14.666;2023-02-28T15:37:51;14.87;;;8.83;;
76733;SDS011;65660;53.288;14.666;2023-02-28T15:42:57;7.03;;;5.50;;
76733;SDS011;65660;53.288;14.666;2023-02-28T15:53:17;6.17;;;5.37;;
76733;SDS011;65660;53.288;14.666;2023-02-28T15:58:20;6.47;;;5.40;;
76733;SDS011;65660;53.288;14.666;2023-02-28T16:03:32;7.20;;;5.23;;
76733;SDS011;65660;53.288;14.666;2023-02-28T16:08:54;7.50;;;5.57;;
76733;SDS011;65660;53.288;14.666;2023-02-28T16:13:55;6.30;;;5.07;;
76733;SDS011;65660;53.288;14.666;2023-02-28T16:18:55;7.23;;;5.80;;
76733;SDS011;65660;53.288;14.666;2023-02-28T16:23:56;8.53;;;7.60;;
76733;SDS011;65660;53.288;14.666;2023-02-28T16:28:56;11.23;;;8.40;;
76733;SDS011;65660;53.288;14.666;2023-02-28T16:33:58;26.03;;;18.20;;
76733;SDS011;65660;53.288;14.666;2023-02-28T16:38:58;11.47;;;8.70;;
76733;SDS011;65660;53.288;14.666;2023-02-28T16:43:58;8.60;;;7.07;;
76733;SDS011;65660;53.288;14.666;2023-02-28T16:48:59;8.20;;;6.67;;
76733;SDS011;65660;53.288;14.666;2023-02-28T16:54:00;8.00;;;6.73;;
76733;SDS011;65660;53.288;14.666;2023-02-28T16:59:01;7.43;;;6.33;;
76733;SDS011;65660;53.288;14.666;2023-02-28T17:04:02;7.20;;;6.60;;
76733;SDS011;65660;53.288;14.666;2023-02-28T17:09:03;11.53;;;6.93;;
76733;SDS011;65660;53.288;14.666;2023-02-28T17:14:03;10.13;;;7.60;;
76733;SDS011;65660;53.288;14.666;2023-02-28T17:19:05;9.27;;;8.07;;
76733;SDS011;65660;53.288;14.666;2023-02-28T17:24:06;7.97;;;6.10;;
76733;SDS011;65660;53.288;14.666;2023-02-28T17:29:15;7.60;;;6.40;;
76733;SDS011;65660;53.288;14.666;2023-02-28T17:34:18;8.77;;;6.30;;
76733;SDS011;65660;53.288;14.666;2023-02-28T17:39:19;8.23;;;6.50;;
76733;SDS011;65660;53.288;14.666;2023-02-28T17:44:21;10.47;;;6.70;;
76733;SDS011;65660;53.288;14.666;2023-02-28T17:49:22;9.53;;;6.80;;
76733;SDS011;65660;53.288;14.666;2023-02-28T17:54:23;10.83;;;7.07;;
76733;SDS011;65660;53.288;14.666;2023-02-28T17:59:23;13.83;;;8.20;;
76733;SDS011;65660;53.288;14.666;2023-02-28T18:04:24;17.17;;;10.70;;
76733;SDS011;65660;53.288;14.666;2023-02-28T18:09:25;17.30;;;11.70;;
76733;SDS011;65660;53.288;14.666;2023-02-28T18:14:26;22.83;;;13.50;;
76733;SDS011;65660;53.288;14.666;2023-02-28T18:19:26;23.60;;;14.83;;
76733;SDS011;65660;53.288;14.666;2023-02-28T18:24:27;21.60;;;13.83;;
76733;SDS011;65660;53.288;14.666;2023-02-28T18:29:28;22.53;;;13.43;;
76733;SDS011;65660;53.288;14.666;2023-02-28T18:34:29;21.73;;;11.73;;
76733;SDS011;65660;53.288;14.666;2023-02-28T18:39:29;22.10;;;11.63;;
76733;SDS011;65660;53.288;14.666;2023-02-28T18:44:30;18.87;;;11.27;;
76733;SDS011;65660;53.288;14.666;2023-02-28T18:49:30;21.63;;;12.63;;
76733;SDS011;65660;53.288;14.666;2023-02-28T18:54:31;19.53;;;10.67;;
76733;SDS011;65660;53.288;14.666;2023-02-28T18:59:31;19.37;;;10.43;;
76733;SDS011;65660;53.288;14.666;2023-02-28T19:04:32;23.23;;;11.53;;
76733;SDS011;65660;53.288;14.666;2023-02-28T19:09:39;36.47;;;18.63;;
76733;SDS011;65660;53.288;14.666;2023-02-28T19:14:39;30.60;;;15.03;;
76733;SDS011;65660;53.288;14.666;2023-02-28T19:19:40;45.47;;;19.73;;
76733;SDS011;65660;53.288;14.666;2023-02-28T19:24:40;47.70;;;20.60;;
76733;SDS011;65660;53.288;14.666;2023-02-28T19:29:41;43.07;;;20.80;;
76733;SDS011;65660;53.288;14.666;2023-02-28T19:34:41;43.20;;;19.60;;
76733;SDS011;65660;53.288;14.666;2023-02-28T19:39:42;45.00;;;20.53;;
76733;SDS011;65660;53.288;14.666;2023-02-28T19:44:43;42.83;;;20.33;;
76733;SDS011;65660;53.288;14.666;2023-02-28T19:49:44;42.00;;;19.70;;
76733;SDS011;65660;53.288;14.666;2023-02-28T19:54:45;44.67;;;20.67;;
76733;SDS011;65660;53.288;14.666;2023-02-28T19:59:45;48.67;;;22.70;;
76733;SDS011;65660;53.288;14.666;2023-02-28T20:04:46;45.23;;;21.37;;
76733;SDS011;65660;53.288;14.666;2023-02-28T20:09:48;44.30;;;20.47;;
76733;SDS011;65660;53.288;14.666;2023-02-28T20:14:48;43.73;;;21.93;;
76733;SDS011;65660;53.288;14.666;2023-02-28T20:19:49;37.33;;;18.20;;
76733;SDS011;65660;53.288;14.666;2023-02-28T20:24:50;40.10;;;18.07;;
76733;SDS011;65660;53.288;14.666;2023-02-28T20:29:50;44.23;;;23.13;;
76733;SDS011;65660;53.288;14.666;2023-02-28T20:34:51;41.50;;;19.63;;
76733;SDS011;65660;53.288;14.666;2023-02-28T20:39:51;41.27;;;21.00;;
76733;SDS011;65660;53.288;14.666;2023-02-28T20:44:52;42.33;;;20.30;;
76733;SDS011;65660;53.288;14.666;2023-02-28T20:49:52;48.30;;;23.57;;
76733;SDS011;65660;53.288;14.666;2023-02-28T20:54:53;48.50;;;22.90;;
76733;SDS011;65660;53.288;14.666;2023-02-28T20:59:53;44.07;;;20.73;;
76733;SDS011;65660;53.288;14.666;2023-02-28T21:04:54;40.37;;;20.03;;
76733;SDS011;65660;53.288;14.666;2023-02-28T21:09:54;31.47;;;16.87;;
76733;SDS011;65660;53.288;14.666;2023-02-28T21:14:55;31.67;;;15.93;;
76733;SDS011;65660;53.288;14.666;2023-02-28T21:19:55;34.20;;;18.00;;
76733;SDS011;65660;53.288;14.666;2023-02-28T21:24:56;33.93;;;16.77;;
76733;SDS011;65660;53.288;14.666;2023-02-28T21:29:57;36.70;;;16.67;;
76733;SDS011;65660;53.288;14.666;2023-02-28T21:34:57;32.30;;;16.23;;
76733;SDS011;65660;53.288;14.666;2023-02-28T21:39:57;31.60;;;15.37;;
76733;SDS011;65660;53.288;14.666;2023-02-28T21:44:58;31.27;;;17.37;;
76733;SDS011;65660;53.288;14.666;2023-02-28T21:49:58;30.03;;;15.27;;
76733;SDS011;65660;53.288;14.666;2023-02-28T21:54:59;31.13;;;16.23;;
76733;SDS011;65660;53.288;14.666;2023-02-28T21:59:59;30.03;;;14.57;;
76733;SDS011;65660;53.288;14.666;2023-02-28T22:05:00;27.20;;;12.83;;
76733;SDS011;65660;53.288;14.666;2023-02-28T22:10:00;27.63;;;13.80;;
76733;SDS011;65660;53.288;14.666;2023-02-28T22:15:01;21.07;;;10.27;;
76733;SDS011;65660;53.288;14.666;2023-02-28T22:20:01;19.77;;;9.47;;
76733;SDS011;65660;53.288;14.666;2023-02-28T22:25:02;18.70;;;9.83;;
76733;SDS011;65660;53.288;14.666;2023-02-28T22:30:02;33.90;;;16.17;;
76733;SDS011;65660;53.288;14.666;2023-02-28T22:35:04;38.87;;;17.07;;
76733;SDS011;65660;53.288;14.666;2023-02-28T22:40:05;47.77;;;18.83;;
76733;SDS011;65660;53.288;14.666;2023-02-28T22:45:07;32.37;;;16.13;;
76733;SDS011;65660;53.288;14.666;2023-02-28T22:50:08;28.67;;;12.33;;
76733;SDS011;65660;53.288;14.666;2023-02-28T22:55:10;20.60;;;10.83;;
76733;SDS011;65660;53.288;14.666;2023-02-28T23:00:10;18.43;;;9.87;;
76733;SDS011;65660;53.288;14.666;2023-02-28T23:05:12;28.20;;;11.33;;
76733;SDS011;65660;53.288;14.666;2023-02-28T23:10:14;20.40;;;11.57;;
76733;SDS011;65660;53.288;14.666;2023-02-28T23:15:16;20.93;;;10.83;;
76733;SDS011;65660;53.288;14.666;2023-02-28T23:20:18;19.73;;;10.67;;
76733;SDS011;65660;53.288;14.666;2023-02-28T23:25:19;18.90;;;10.63;;
76733;SDS011;65660;53.288;14.666;2023-02-28T23:30:20;20.27;;;10.63;;
76733;SDS011;65660;53.288;14.666;2023-02-28T23:35:21;20.37;;;10.70;;
76733;SDS011;65660;53.288;14.666;2023-02-28T23:40:21;20.60;;;10.13;;
76733;SDS011;65660;53.288;14.666;2023-02-28T23:45:22;19.50;;;10.33;;
76733;SDS011;65660;53.288;14.666;2023-02-28T23:50:22;17.70;;;10.70;;
76733;SDS011;65660;53.288;14.666;2023-02-28T23:55:23;25.67;;;11.00;;
